sensor_id;sensor_type;location;lat;lon;timestamp;P1;durP1;ratioP1;P2;durP2;ratioP2
3299;SDS011;1662;49.310;8.134;2023-05-10T00:02:06;1.20;;;1.20;;
3299;SDS011;1662;49.310;8.134;2023-05-10T00:04:32;1.50;;;1.50;;
3299;SDS011;1662;49.310;8.134;2023-05-10T00:07:00;1.30;;;1.20;;
3299;SDS011;1662;49.310;8.134;2023-05-10T00:09:26;1.77;;;1.67;;
3299;SDS011;1662;49.310;8.134;2023-05-10T00:11:51;3.90;;;1.40;;
3299;SDS011;1662;49.310;8.134;2023-05-10T00:14:17;1.50;;;1.50;;
3299;SDS011;1662;49.310;8.134;2023-05-10T00:16:43;1.33;;;1.30;;
3299;SDS011;1662;49.310;8.134;2023-05-10T00:19:08;1.60;;;1.60;;
3299;SDS011;1662;49.310;8.134;2023-05-10T00:21:34;1.40;;;1.40;;
3299;SDS011;1662;49.310;8.134;2023-05-10T00:24:00;1.20;;;1.20;;
3299;SDS011;1662;49.310;8.134;2023-05-10T00:26:25;1.40;;;1.40;;
3299;SDS011;1662;49.310;8.134;2023-05-10T00:28:51;1.50;;;1.50;;
3299;SDS011;1662;49.310;8.134;2023-05-10T00:31:16;1.53;;;1.53;;
3299;SDS011;1662;49.310;8.134;2023-05-10T00:33:42;1.63;;;1.53;;
3299;SDS011;1662;49.310;8.134;2023-05-10T00:36:11;1.83;;;1.73;;
3299;SDS011;1662;49.310;8.134;2023-05-10T00:38:36;1.57;;;1.50;;
3299;SDS011;1662;49.310;8.134;2023-05-10T00:41:02;1.80;;;1.80;;
3299;SDS011;1662;49.310;8.134;2023-05-10T00:43:28;1.97;;;1.93;;
3299;SDS011;1662;49.310;8.134;2023-05-10T00:45:53;2.10;;;2.00;;
3299;SDS011;1662;49.310;8.134;2023-05-10T00:48:19;4.07;;;2.57;;
3299;SDS011;1662;49.310;8.134;2023-05-10T00:50:45;3.10;;;2.10;;
3299;SDS011;1662;49.310;8.134;2023-05-10T00:53:11;2.20;;;2.20;;
3299;SDS011;1662;49.310;8.134;2023-05-10T00:55:37;2.37;;;2.27;;
3299;SDS011;1662;49.310;8.134;2023-05-10T00:58:03;2.93;;;2.83;;
3299;SDS011;1662;49.310;8.134;2023-05-10T01:00:32;2.07;;;1.97;;
3299;SDS011;1662;49.310;8.134;2023-05-10T01:02:58;3.40;;;3.13;;
3299;SDS011;1662;49.310;8.134;2023-05-10T01:05:24;3.20;;;3.00;;
3299;SDS011;1662;49.310;8.134;2023-05-10T01:07:51;2.30;;;2.20;;
3299;SDS011;1662;49.310;8.134;2023-05-10T01:10:19;3.00;;;2.80;;
3299;SDS011;1662;49.310;8.134;2023-05-10T01:12:45;2.30;;;2.20;;
3299;SDS011;1662;49.310;8.134;2023-05-10T01:15:12;2.67;;;2.43;;
3299;SDS011;1662;49.310;8.134;2023-05-10T01:17:39;3.40;;;3.20;;
3299;SDS011;1662;49.310;8.134;2023-05-10T01:20:07;3.03;;;2.40;;
3299;SDS011;1662;49.310;8.134;2023-05-10T01:25:27;3.73;;;3.43;;
3299;SDS011;1662;49.310;8.134;2023-05-10T01:33:30;4.03;;;3.70;;
3299;SDS011;1662;49.310;8.134;2023-05-10T01:38:51;2.57;;;2.47;;
3299;SDS011;1662;49.310;8.134;2023-05-10T01:46:47;2.87;;;2.77;;
3299;SDS011;1662;49.310;8.134;2023-05-10T01:49:29;2.90;;;2.77;;
3299;SDS011;1662;49.310;8.134;2023-05-10T01:52:00;2.73;;;2.53;;
3299;SDS011;1662;49.310;8.134;2023-05-10T01:54:32;2.53;;;2.33;;
3299;SDS011;1662;49.310;8.134;2023-05-10T01:57:00;2.83;;;2.73;;
3299;SDS011;1662;49.310;8.134;2023-05-10T01:59:30;2.63;;;2.53;;
3299;SDS011;1662;49.310;8.134;2023-05-10T02:02:03;2.43;;;2.33;;
3299;SDS011;1662;49.310;8.134;2023-05-10T02:04:30;3.17;;;2.90;;
3299;SDS011;1662;49.310;8.134;2023-05-10T02:07:01;2.43;;;2.33;;
3299;SDS011;1662;49.310;8.134;2023-05-10T02:09:27;2.60;;;2.27;;
3299;SDS011;1662;49.310;8.134;2023-05-10T02:11:54;2.23;;;2.03;;
3299;SDS011;1662;49.310;8.134;2023-05-10T02:14:25;1.80;;;1.70;;
3299;SDS011;1662;49.310;8.134;2023-05-10T02:16:55;1.80;;;1.53;;
3299;SDS011;1662;49.310;8.134;2023-05-10T02:19:21;1.93;;;1.57;;
3299;SDS011;1662;49.310;8.134;2023-05-10T02:21:49;1.60;;;1.60;;
3299;SDS011;1662;49.310;8.134;2023-05-10T02:24:16;1.70;;;1.70;;
3299;SDS011;1662;49.310;8.134;2023-05-10T02:26:44;1.87;;;1.77;;
3299;SDS011;1662;49.310;8.134;2023-05-10T02:29:12;1.80;;;1.70;;
3299;SDS011;1662;49.310;8.134;2023-05-10T02:31:42;2.17;;;2.07;;
3299;SDS011;1662;49.310;8.134;2023-05-10T02:34:08;2.40;;;2.30;;
3299;SDS011;1662;49.310;8.134;2023-05-10T02:36:36;2.50;;;1.73;;
3299;SDS011;1662;49.310;8.134;2023-05-10T02:39:03;1.80;;;1.70;;
3299;SDS011;1662;49.310;8.134;2023-05-10T02:41:30;2.07;;;1.63;;
3299;SDS011;1662;49.310;8.134;2023-05-10T02:43:59;2.20;;;2.00;;
3299;SDS011;1662;49.310;8.134;2023-05-10T02:46:26;2.00;;;1.90;;
3299;SDS011;1662;49.310;8.134;2023-05-10T02:48:51;1.83;;;1.80;;
3299;SDS011;1662;49.310;8.134;2023-05-10T02:51:18;2.07;;;1.97;;
3299;SDS011;1662;49.310;8.134;2023-05-10T02:53:49;1.80;;;1.80;;
3299;SDS011;1662;49.310;8.134;2023-05-10T02:56:40;2.90;;;1.97;;
3299;SDS011;1662;49.310;8.134;2023-05-10T02:59:07;1.57;;;1.50;;
3299;SDS011;1662;49.310;8.134;2023-05-10T03:01:33;2.70;;;2.10;;
3299;SDS011;1662;49.310;8.134;2023-05-10T03:03:59;2.10;;;2.00;;
3299;SDS011;1662;49.310;8.134;2023-05-10T03:06:25;2.00;;;1.90;;
3299;SDS011;1662;49.310;8.134;2023-05-10T03:08:50;2.33;;;2.13;;
3299;SDS011;1662;49.310;8.134;2023-05-10T03:13:56;2.10;;;2.00;;
3299;SDS011;1662;49.310;8.134;2023-05-10T03:16:35;2.70;;;2.20;;
3299;SDS011;1662;49.310;8.134;2023-05-10T03:19:29;3.27;;;2.37;;
3299;SDS011;1662;49.310;8.134;2023-05-10T03:22:03;2.17;;;2.07;;
3299;SDS011;1662;49.310;8.134;2023-05-10T03:24:34;4.50;;;3.23;;
3299;SDS011;1662;49.310;8.134;2023-05-10T03:27:01;2.70;;;2.50;;
3299;SDS011;1662;49.310;8.134;2023-05-10T03:29:29;2.77;;;2.67;;
3299;SDS011;1662;49.310;8.134;2023-05-10T03:31:57;2.87;;;2.53;;
3299;SDS011;1662;49.310;8.134;2023-05-10T03:34:24;2.87;;;2.77;;
3299;SDS011;1662;49.310;8.134;2023-05-10T03:36:50;2.73;;;2.63;;
3299;SDS011;1662;49.310;8.134;2023-05-10T03:39:16;4.10;;;2.80;;
3299;SDS011;1662;49.310;8.134;2023-05-10T03:41:41;3.17;;;3.03;;
3299;SDS011;1662;49.310;8.134;2023-05-10T03:44:07;3.10;;;3.00;;
3299;SDS011;1662;49.310;8.134;2023-05-10T03:46:33;2.83;;;2.63;;
3299;SDS011;1662;49.310;8.134;2023-05-10T03:48:58;3.13;;;2.90;;
3299;SDS011;1662;49.310;8.134;2023-05-10T03:51:24;3.50;;;3.30;;
3299;SDS011;1662;49.310;8.134;2023-05-10T03:53:53;3.40;;;2.67;;
3299;SDS011;1662;49.310;8.134;2023-05-10T03:56:19;3.03;;;2.83;;
3299;SDS011;1662;49.310;8.134;2023-05-10T03:58:45;3.43;;;2.93;;
3299;SDS011;1662;49.310;8.134;2023-05-10T04:01:11;3.83;;;3.20;;
3299;SDS011;1662;49.310;8.134;2023-05-10T04:03:37;3.10;;;2.90;;
3299;SDS011;1662;49.310;8.134;2023-05-10T04:06:03;3.30;;;3.10;;
3299;SDS011;1662;49.310;8.134;2023-05-10T04:08:29;2.73;;;2.57;;
3299;SDS011;1662;49.310;8.134;2023-05-10T04:11:04;2.90;;;2.80;;
3299;SDS011;1662;49.310;8.134;2023-05-10T04:13:31;2.93;;;2.83;;
3299;SDS011;1662;49.310;8.134;2023-05-10T04:15:57;2.77;;;2.57;;
3299;SDS011;1662;49.310;8.134;2023-05-10T04:18:22;2.73;;;2.63;;
3299;SDS011;1662;49.310;8.134;2023-05-10T04:20:48;2.50;;;2.33;;
3299;SDS011;1662;49.310;8.134;2023-05-10T04:23:14;2.83;;;2.73;;
3299;SDS011;1662;49.310;8.134;2023-05-10T04:25:41;3.47;;;2.80;;
3299;SDS011;1662;49.310;8.134;2023-05-10T04:28:07;2.93;;;2.70;;
3299;SDS011;1662;49.310;8.134;2023-05-10T04:30:33;2.67;;;2.53;;
3299;SDS011;1662;49.310;8.134;2023-05-10T04:32:59;2.87;;;2.77;;
3299;SDS011;1662;49.310;8.134;2023-05-10T04:35:26;2.93;;;2.73;;
3299;SDS011;1662;49.310;8.134;2023-05-10T04:37:53;2.43;;;2.33;;
3299;SDS011;1662;49.310;8.134;2023-05-10T04:40:18;4.37;;;2.60;;
3299;SDS011;1662;49.310;8.134;2023-05-10T04:42:45;3.20;;;3.00;;
3299;SDS011;1662;49.310;8.134;2023-05-10T04:45:10;3.50;;;3.20;;
3299;SDS011;1662;49.310;8.134;2023-05-10T04:47:37;3.63;;;3.20;;
3299;SDS011;1662;49.310;8.134;2023-05-10T04:50:05;3.10;;;2.90;;
3299;SDS011;1662;49.310;8.134;2023-05-10T04:52:32;3.83;;;3.63;;
3299;SDS011;1662;49.310;8.134;2023-05-10T04:54:57;3.83;;;3.53;;
3299;SDS011;1662;49.310;8.134;2023-05-10T04:57:23;3.60;;;3.30;;
3299;SDS011;1662;49.310;8.134;2023-05-10T04:59:48;3.37;;;3.07;;
3299;SDS011;1662;49.310;8.134;2023-05-10T05:02:14;2.77;;;2.67;;
3299;SDS011;1662;49.310;8.134;2023-05-10T05:04:40;9.17;;;3.00;;
3299;SDS011;1662;49.310;8.134;2023-05-10T05:07:05;5.27;;;2.40;;
3299;SDS011;1662;49.310;8.134;2023-05-10T05:09:31;3.10;;;2.90;;
3299;SDS011;1662;49.310;8.134;2023-05-10T05:11:59;2.90;;;2.80;;
3299;SDS011;1662;49.310;8.134;2023-05-10T05:14:25;2.40;;;2.30;;
3299;SDS011;1662;49.310;8.134;2023-05-10T05:16:51;2.20;;;2.10;;
3299;SDS011;1662;49.310;8.134;2023-05-10T05:19:17;2.17;;;2.07;;
3299;SDS011;1662;49.310;8.134;2023-05-10T05:21:42;2.10;;;2.00;;
3299;SDS011;1662;49.310;8.134;2023-05-10T05:24:08;1.83;;;1.83;;
3299;SDS011;1662;49.310;8.134;2023-05-10T05:26:38;2.00;;;1.90;;
3299;SDS011;1662;49.310;8.134;2023-05-10T05:29:04;2.33;;;1.60;;
3299;SDS011;1662;49.310;8.134;2023-05-10T05:31:29;2.07;;;2.00;;
3299;SDS011;1662;49.310;8.134;2023-05-10T05:33:55;2.20;;;2.10;;
3299;SDS011;1662;49.310;8.134;2023-05-10T05:36:21;2.27;;;2.20;;
3299;SDS011;1662;49.310;8.134;2023-05-10T05:38:47;2.40;;;2.27;;
3299;SDS011;1662;49.310;8.134;2023-05-10T05:41:12;2.27;;;2.17;;
3299;SDS011;1662;49.310;8.134;2023-05-10T05:43:38;2.47;;;2.27;;
3299;SDS011;1662;49.310;8.134;2023-05-10T05:46:04;2.17;;;2.07;;
3299;SDS011;1662;49.310;8.134;2023-05-10T05:48:30;2.03;;;1.93;;
3299;SDS011;1662;49.310;8.134;2023-05-10T05:50:58;2.13;;;1.93;;
3299;SDS011;1662;49.310;8.134;2023-05-10T05:53:24;1.90;;;1.90;;
3299;SDS011;1662;49.310;8.134;2023-05-10T05:58:22;2.60;;;2.50;;
3299;SDS011;1662;49.310;8.134;2023-05-10T06:00:48;2.43;;;2.23;;
3299;SDS011;1662;49.310;8.134;2023-05-10T06:03:14;2.27;;;2.17;;
3299;SDS011;1662;49.310;8.134;2023-05-10T06:05:40;2.13;;;2.03;;
3299;SDS011;1662;49.310;8.134;2023-05-10T06:08:06;2.83;;;2.73;;
3299;SDS011;1662;49.310;8.134;2023-05-10T06:10:31;1.97;;;1.97;;
3299;SDS011;1662;49.310;8.134;2023-05-10T06:12:57;2.30;;;2.20;;
3299;SDS011;1662;49.310;8.134;2023-05-10T06:15:22;2.07;;;1.97;;
3299;SDS011;1662;49.310;8.134;2023-05-10T06:17:48;2.03;;;1.93;;
3299;SDS011;1662;49.310;8.134;2023-05-10T06:20:16;3.13;;;1.93;;
3299;SDS011;1662;49.310;8.134;2023-05-10T06:22:43;2.13;;;2.03;;
3299;SDS011;1662;49.310;8.134;2023-05-10T06:25:09;1.93;;;1.73;;
3299;SDS011;1662;49.310;8.134;2023-05-10T06:27:35;1.80;;;1.70;;
3299;SDS011;1662;49.310;8.134;2023-05-10T06:30:03;1.90;;;1.80;;
3299;SDS011;1662;49.310;8.134;2023-05-10T06:32:29;1.83;;;1.73;;
3299;SDS011;1662;49.310;8.134;2023-05-10T06:34:55;7.07;;;2.30;;
3299;SDS011;1662;49.310;8.134;2023-05-10T06:37:21;2.60;;;1.90;;
3299;SDS011;1662;49.310;8.134;2023-05-10T06:39:46;1.87;;;1.80;;
3299;SDS011;1662;49.310;8.134;2023-05-10T06:42:12;2.33;;;2.23;;
3299;SDS011;1662;49.310;8.134;2023-05-10T06:44:37;1.90;;;1.80;;
3299;SDS011;1662;49.310;8.134;2023-05-10T06:47:03;2.67;;;2.13;;
3299;SDS011;1662;49.310;8.134;2023-05-10T06:49:28;1.60;;;1.60;;
3299;SDS011;1662;49.310;8.134;2023-05-10T06:51:57;3.13;;;1.53;;
3299;SDS011;1662;49.310;8.134;2023-05-10T06:54:23;2.30;;;2.20;;
3299;SDS011;1662;49.310;8.134;2023-05-10T06:56:48;1.70;;;1.60;;
3299;SDS011;1662;49.310;8.134;2023-05-10T06:59:15;1.93;;;1.80;;
3299;SDS011;1662;49.310;8.134;2023-05-10T07:01:41;2.80;;;1.40;;
3299;SDS011;1662;49.310;8.134;2023-05-10T07:04:07;1.53;;;1.43;;
3299;SDS011;1662;49.310;8.134;2023-05-10T07:06:33;1.80;;;1.80;;
3299;SDS011;1662;49.310;8.134;2023-05-10T07:08:59;2.30;;;2.00;;
3299;SDS011;1662;49.310;8.134;2023-05-10T07:11:29;1.93;;;1.83;;
3299;SDS011;1662;49.310;8.134;2023-05-10T07:13:55;1.73;;;1.63;;
3299;SDS011;1662;49.310;8.134;2023-05-10T07:16:21;1.60;;;1.50;;
3299;SDS011;1662;49.310;8.134;2023-05-10T07:18:46;2.60;;;2.40;;
3299;SDS011;1662;49.310;8.134;2023-05-10T07:21:12;1.70;;;1.60;;
3299;SDS011;1662;49.310;8.134;2023-05-10T07:23:37;1.80;;;1.70;;
3299;SDS011;1662;49.310;8.134;2023-05-10T07:26:03;2.17;;;2.07;;
3299;SDS011;1662;49.310;8.134;2023-05-10T07:28:29;1.83;;;1.73;;
3299;SDS011;1662;49.310;8.134;2023-05-10T07:30:54;2.00;;;1.90;;
3299;SDS011;1662;49.310;8.134;2023-05-10T07:33:20;1.93;;;1.83;;
3299;SDS011;1662;49.310;8.134;2023-05-10T07:35:46;1.83;;;1.83;;
3299;SDS011;1662;49.310;8.134;2023-05-10T07:38:11;1.70;;;1.70;;
3299;SDS011;1662;49.310;8.134;2023-05-10T07:40:38;1.90;;;1.80;;
3299;SDS011;1662;49.310;8.134;2023-05-10T07:43:04;2.60;;;2.40;;
3299;SDS011;1662;49.310;8.134;2023-05-10T07:45:30;1.80;;;1.70;;
3299;SDS011;1662;49.310;8.134;2023-05-10T07:47:56;1.80;;;1.80;;
3299;SDS011;1662;49.310;8.134;2023-05-10T07:50:21;2.37;;;2.27;;
3299;SDS011;1662;49.310;8.134;2023-05-10T07:52:47;1.90;;;1.73;;
3299;SDS011;1662;49.310;8.134;2023-05-10T07:55:13;5.37;;;4.87;;
3299;SDS011;1662;49.310;8.134;2023-05-10T07:57:41;1.70;;;1.70;;
3299;SDS011;1662;49.310;8.134;2023-05-10T08:00:07;3.47;;;1.67;;
3299;SDS011;1662;49.310;8.134;2023-05-10T08:02:34;2.50;;;2.40;;
3299;SDS011;1662;49.310;8.134;2023-05-10T08:05:00;1.67;;;1.67;;
3299;SDS011;1662;49.310;8.134;2023-05-10T08:07:26;2.43;;;1.77;;
3299;SDS011;1662;49.310;8.134;2023-05-10T08:09:51;2.03;;;1.80;;
3299;SDS011;1662;49.310;8.134;2023-05-10T08:12:17;2.40;;;2.00;;
3299;SDS011;1662;49.310;8.134;2023-05-10T08:14:42;1.80;;;1.80;;
3299;SDS011;1662;49.310;8.134;2023-05-10T08:17:08;1.60;;;1.60;;
3299;SDS011;1662;49.310;8.134;2023-05-10T08:19:36;1.60;;;1.60;;
3299;SDS011;1662;49.310;8.134;2023-05-10T08:22:02;2.20;;;2.10;;
3299;SDS011;1662;49.310;8.134;2023-05-10T08:24:27;1.90;;;1.80;;
3299;SDS011;1662;49.310;8.134;2023-05-10T08:26:53;2.03;;;1.93;;
3299;SDS011;1662;49.310;8.134;2023-05-10T08:29:18;3.83;;;1.70;;
3299;SDS011;1662;49.310;8.134;2023-05-10T08:31:44;1.90;;;1.80;;
3299;SDS011;1662;49.310;8.134;2023-05-10T08:34:10;1.57;;;1.57;;
3299;SDS011;1662;49.310;8.134;2023-05-10T08:36:35;2.67;;;1.60;;
3299;SDS011;1662;49.310;8.134;2023-05-10T08:39:01;1.93;;;1.90;;
3299;SDS011;1662;49.310;8.134;2023-05-10T08:41:27;3.77;;;2.27;;
3299;SDS011;1662;49.310;8.134;2023-05-10T08:43:53;3.57;;;1.70;;
3299;SDS011;1662;49.310;8.134;2023-05-10T08:46:20;1.80;;;1.63;;
3299;SDS011;1662;49.310;8.134;2023-05-10T08:48:47;1.73;;;1.50;;
3299;SDS011;1662;49.310;8.134;2023-05-10T08:51:15;2.40;;;1.77;;
3299;SDS011;1662;49.310;8.134;2023-05-10T08:53:43;1.60;;;1.50;;
3299;SDS011;1662;49.310;8.134;2023-05-10T08:56:09;1.57;;;1.57;;
3299;SDS011;1662;49.310;8.134;2023-05-10T08:58:36;5.90;;;2.20;;
3299;SDS011;1662;49.310;8.134;2023-05-10T09:01:02;1.73;;;1.73;;
3299;SDS011;1662;49.310;8.134;2023-05-10T09:03:29;1.60;;;1.53;;
3299;SDS011;1662;49.310;8.134;2023-05-10T09:05:55;1.80;;;1.70;;
3299;SDS011;1662;49.310;8.134;2023-05-10T09:08:22;1.70;;;1.60;;
3299;SDS011;1662;49.310;8.134;2023-05-10T09:10:52;2.10;;;1.70;;
3299;SDS011;1662;49.310;8.134;2023-05-10T09:13:19;1.70;;;1.60;;
3299;SDS011;1662;49.310;8.134;2023-05-10T09:15:46;1.73;;;1.63;;
3299;SDS011;1662;49.310;8.134;2023-05-10T09:18:13;1.43;;;1.43;;
3299;SDS011;1662;49.310;8.134;2023-05-10T09:20:38;1.43;;;1.33;;
3299;SDS011;1662;49.310;8.134;2023-05-10T09:23:05;1.63;;;1.50;;
3299;SDS011;1662;49.310;8.134;2023-05-10T09:25:30;1.63;;;1.53;;
3299;SDS011;1662;49.310;8.134;2023-05-10T09:27:58;7.43;;;1.50;;
3299;SDS011;1662;49.310;8.134;2023-05-10T09:32:54;1.53;;;1.50;;
3299;SDS011;1662;49.310;8.134;2023-05-10T09:35:21;2.17;;;1.60;;
3299;SDS011;1662;49.310;8.134;2023-05-10T09:37:49;1.47;;;1.37;;
3299;SDS011;1662;49.310;8.134;2023-05-10T09:40:17;1.30;;;1.30;;
3299;SDS011;1662;49.310;8.134;2023-05-10T09:42:58;1.10;;;1.00;;
3299;SDS011;1662;49.310;8.134;2023-05-10T09:45:32;1.40;;;1.40;;
3299;SDS011;1662;49.310;8.134;2023-05-10T09:47:59;1.20;;;1.10;;
3299;SDS011;1662;49.310;8.134;2023-05-10T09:50:26;1.60;;;1.50;;
3299;SDS011;1662;49.310;8.134;2023-05-10T09:52:57;1.40;;;1.40;;
3299;SDS011;1662;49.310;8.134;2023-05-10T09:55:25;1.33;;;1.33;;
3299;SDS011;1662;49.310;8.134;2023-05-10T09:58:03;2.30;;;1.63;;
3299;SDS011;1662;49.310;8.134;2023-05-10T10:00:49;1.70;;;1.60;;
3299;SDS011;1662;49.310;8.134;2023-05-10T10:03:20;1.20;;;1.20;;
3299;SDS011;1662;49.310;8.134;2023-05-10T10:05:46;2.73;;;1.50;;
3299;SDS011;1662;49.310;8.134;2023-05-10T10:08:13;2.10;;;1.80;;
3299;SDS011;1662;49.310;8.134;2023-05-10T10:10:40;1.67;;;1.57;;
3299;SDS011;1662;49.310;8.134;2023-05-10T10:13:06;2.03;;;1.87;;
3299;SDS011;1662;49.310;8.134;2023-05-10T10:15:33;2.43;;;1.73;;
3299;SDS011;1662;49.310;8.134;2023-05-10T10:17:59;1.57;;;1.50;;
3299;SDS011;1662;49.310;8.134;2023-05-10T10:20:26;1.57;;;1.20;;
3299;SDS011;1662;49.310;8.134;2023-05-10T10:22:52;4.70;;;1.67;;
3299;SDS011;1662;49.310;8.134;2023-05-10T10:25:18;2.07;;;1.97;;
3299;SDS011;1662;49.310;8.134;2023-05-10T10:36:01;1.63;;;1.40;;
3299;SDS011;1662;49.310;8.134;2023-05-10T10:38:54;1.63;;;1.53;;
3299;SDS011;1662;49.310;8.134;2023-05-10T10:49:31;3.40;;;1.87;;
3299;SDS011;1662;49.310;8.134;2023-05-10T10:54:53;2.60;;;2.20;;
3299;SDS011;1662;49.310;8.134;2023-05-10T10:57:22;3.00;;;1.50;;
3299;SDS011;1662;49.310;8.134;2023-05-10T10:59:47;1.47;;;1.37;;
3299;SDS011;1662;49.310;8.134;2023-05-10T11:02:32;2.30;;;2.10;;
3299;SDS011;1662;49.310;8.134;2023-05-10T11:07:56;1.70;;;1.60;;
3299;SDS011;1662;49.310;8.134;2023-05-10T11:10:24;1.70;;;1.70;;
3299;SDS011;1662;49.310;8.134;2023-05-10T11:12:51;2.43;;;2.03;;
3299;SDS011;1662;49.310;8.134;2023-05-10T11:15:17;1.93;;;1.83;;
3299;SDS011;1662;49.310;8.134;2023-05-10T11:17:42;1.77;;;1.67;;
3299;SDS011;1662;49.310;8.134;2023-05-10T11:20:13;2.10;;;2.00;;
3299;SDS011;1662;49.310;8.134;2023-05-10T11:22:52;1.90;;;1.80;;
3299;SDS011;1662;49.310;8.134;2023-05-10T11:25:19;4.47;;;2.40;;
3299;SDS011;1662;49.310;8.134;2023-05-10T11:27:46;5.83;;;2.27;;
3299;SDS011;1662;49.310;8.134;2023-05-10T11:30:13;2.53;;;2.23;;
3299;SDS011;1662;49.310;8.134;2023-05-10T11:32:39;1.87;;;1.87;;
3299;SDS011;1662;49.310;8.134;2023-05-10T11:35:09;2.43;;;2.23;;
3299;SDS011;1662;49.310;8.134;2023-05-10T11:37:35;2.30;;;2.20;;
3299;SDS011;1662;49.310;8.134;2023-05-10T11:40:02;2.00;;;1.90;;
3299;SDS011;1662;49.310;8.134;2023-05-10T11:42:30;2.77;;;2.30;;
3299;SDS011;1662;49.310;8.134;2023-05-10T11:44:55;9.40;;;2.87;;
3299;SDS011;1662;49.310;8.134;2023-05-10T11:47:21;2.50;;;1.80;;
3299;SDS011;1662;49.310;8.134;2023-05-10T11:49:47;3.20;;;1.87;;
3299;SDS011;1662;49.310;8.134;2023-05-10T11:52:13;2.37;;;2.27;;
3299;SDS011;1662;49.310;8.134;2023-05-10T11:54:46;3.80;;;1.90;;
3299;SDS011;1662;49.310;8.134;2023-05-10T11:57:17;1.80;;;1.70;;
3299;SDS011;1662;49.310;8.134;2023-05-10T11:59:45;1.70;;;1.60;;
3299;SDS011;1662;49.310;8.134;2023-05-10T12:02:11;1.60;;;1.60;;
3299;SDS011;1662;49.310;8.134;2023-05-10T12:04:38;3.13;;;2.60;;
3299;SDS011;1662;49.310;8.134;2023-05-10T12:07:04;3.13;;;1.40;;
3299;SDS011;1662;49.310;8.134;2023-05-10T12:09:32;2.03;;;1.70;;
3299;SDS011;1662;49.310;8.134;2023-05-10T12:11:58;3.13;;;1.80;;
3299;SDS011;1662;49.310;8.134;2023-05-10T12:14:23;2.27;;;2.07;;
3299;SDS011;1662;49.310;8.134;2023-05-10T12:16:49;1.70;;;1.70;;
3299;SDS011;1662;49.310;8.134;2023-05-10T12:19:20;3.37;;;2.37;;
3299;SDS011;1662;49.310;8.134;2023-05-10T12:21:46;2.10;;;2.00;;
3299;SDS011;1662;49.310;8.134;2023-05-10T12:24:12;2.20;;;2.10;;
3299;SDS011;1662;49.310;8.134;2023-05-10T12:26:38;1.90;;;1.90;;
3299;SDS011;1662;49.310;8.134;2023-05-10T12:37:01;2.30;;;2.20;;
3299;SDS011;1662;49.310;8.134;2023-05-10T12:39:43;2.03;;;1.93;;
3299;SDS011;1662;49.310;8.134;2023-05-10T12:42:09;1.93;;;1.83;;
3299;SDS011;1662;49.310;8.134;2023-05-10T12:44:35;1.83;;;1.83;;
3299;SDS011;1662;49.310;8.134;2023-05-10T12:47:01;2.20;;;1.60;;
3299;SDS011;1662;49.310;8.134;2023-05-10T12:49:26;2.83;;;1.70;;
3299;SDS011;1662;49.310;8.134;2023-05-10T12:51:52;2.53;;;2.40;;
3299;SDS011;1662;49.310;8.134;2023-05-10T12:54:20;2.07;;;1.97;;
3299;SDS011;1662;49.310;8.134;2023-05-10T12:56:46;2.20;;;2.10;;
3299;SDS011;1662;49.310;8.134;2023-05-10T12:59:11;2.10;;;1.90;;
3299;SDS011;1662;49.310;8.134;2023-05-10T13:01:37;2.40;;;2.30;;
3299;SDS011;1662;49.310;8.134;2023-05-10T13:04:03;1.80;;;1.80;;
3299;SDS011;1662;49.310;8.134;2023-05-10T13:06:28;2.47;;;2.27;;
3299;SDS011;1662;49.310;8.134;2023-05-10T13:08:54;2.30;;;2.20;;
3299;SDS011;1662;49.310;8.134;2023-05-10T13:11:22;1.83;;;1.73;;
3299;SDS011;1662;49.310;8.134;2023-05-10T13:13:48;2.27;;;2.17;;
3299;SDS011;1662;49.310;8.134;2023-05-10T13:16:14;2.47;;;2.37;;
3299;SDS011;1662;49.310;8.134;2023-05-10T13:18:39;1.70;;;1.70;;
3299;SDS011;1662;49.310;8.134;2023-05-10T13:21:05;3.70;;;2.57;;
3299;SDS011;1662;49.310;8.134;2023-05-10T13:23:30;1.87;;;1.77;;
3299;SDS011;1662;49.310;8.134;2023-05-10T13:25:56;2.00;;;1.90;;
3299;SDS011;1662;49.310;8.134;2023-05-10T13:28:24;2.23;;;2.13;;
3299;SDS011;1662;49.310;8.134;2023-05-10T13:30:51;1.80;;;1.70;;
3299;SDS011;1662;49.310;8.134;2023-05-10T13:33:16;3.47;;;3.30;;
3299;SDS011;1662;49.310;8.134;2023-05-10T13:35:43;2.30;;;2.20;;
3299;SDS011;1662;49.310;8.134;2023-05-10T13:38:09;1.93;;;1.70;;
3299;SDS011;1662;49.310;8.134;2023-05-10T13:40:35;2.53;;;2.43;;
3299;SDS011;1662;49.310;8.134;2023-05-10T13:43:01;2.10;;;2.00;;
3299;SDS011;1662;49.310;8.134;2023-05-10T13:45:27;2.07;;;1.90;;
3299;SDS011;1662;49.310;8.134;2023-05-10T13:47:52;3.07;;;3.07;;
3299;SDS011;1662;49.310;8.134;2023-05-10T13:50:18;2.70;;;2.50;;
3299;SDS011;1662;49.310;8.134;2023-05-10T13:52:43;3.30;;;3.20;;
3299;SDS011;1662;49.310;8.134;2023-05-10T13:55:09;3.07;;;2.97;;
3299;SDS011;1662;49.310;8.134;2023-05-10T13:57:38;2.47;;;2.37;;
3299;SDS011;1662;49.310;8.134;2023-05-10T14:00:03;3.10;;;3.00;;
3299;SDS011;1662;49.310;8.134;2023-05-10T14:02:29;3.23;;;2.97;;
3299;SDS011;1662;49.310;8.134;2023-05-10T14:04:55;4.17;;;3.87;;
3299;SDS011;1662;49.310;8.134;2023-05-10T14:07:21;2.90;;;2.80;;
3299;SDS011;1662;49.310;8.134;2023-05-10T14:09:46;2.07;;;1.97;;
3299;SDS011;1662;49.310;8.134;2023-05-10T14:12:14;2.40;;;2.30;;
3299;SDS011;1662;49.310;8.134;2023-05-10T14:14:41;3.57;;;3.30;;
3299;SDS011;1662;49.310;8.134;2023-05-10T14:17:06;2.70;;;2.60;;
3299;SDS011;1662;49.310;8.134;2023-05-10T14:19:32;4.03;;;3.67;;
3299;SDS011;1662;49.310;8.134;2023-05-10T14:21:59;2.93;;;2.83;;
3299;SDS011;1662;49.310;8.134;2023-05-10T14:24:24;3.17;;;2.97;;
3299;SDS011;1662;49.310;8.134;2023-05-10T14:26:50;3.70;;;3.50;;
3299;SDS011;1662;49.310;8.134;2023-05-10T14:29:18;2.90;;;2.80;;
3299;SDS011;1662;49.310;8.134;2023-05-10T14:31:47;3.30;;;2.80;;
3299;SDS011;1662;49.310;8.134;2023-05-10T14:34:13;3.77;;;3.67;;
3299;SDS011;1662;49.310;8.134;2023-05-10T14:36:38;3.40;;;3.30;;
3299;SDS011;1662;49.310;8.134;2023-05-10T14:39:04;3.80;;;3.73;;
3299;SDS011;1662;49.310;8.134;2023-05-10T14:41:31;4.20;;;3.90;;
3299;SDS011;1662;49.310;8.134;2023-05-10T14:43:57;4.83;;;3.50;;
3299;SDS011;1662;49.310;8.134;2023-05-10T14:46:23;4.07;;;3.87;;
3299;SDS011;1662;49.310;8.134;2023-05-10T14:48:48;3.10;;;3.10;;
3299;SDS011;1662;49.310;8.134;2023-05-10T14:51:14;3.73;;;3.53;;
3299;SDS011;1662;49.310;8.134;2023-05-10T14:53:40;4.33;;;4.03;;
3299;SDS011;1662;49.310;8.134;2023-05-10T14:56:05;2.50;;;2.50;;
3299;SDS011;1662;49.310;8.134;2023-05-10T14:58:32;4.00;;;3.80;;
3299;SDS011;1662;49.310;8.134;2023-05-10T15:00:57;4.33;;;4.10;;
3299;SDS011;1662;49.310;8.134;2023-05-10T15:03:23;3.90;;;3.03;;
3299;SDS011;1662;49.310;8.134;2023-05-10T15:05:48;4.10;;;4.00;;
3299;SDS011;1662;49.310;8.134;2023-05-10T15:08:14;3.20;;;3.10;;
3299;SDS011;1662;49.310;8.134;2023-05-10T15:10:40;3.00;;;2.90;;
3299;SDS011;1662;49.310;8.134;2023-05-10T15:13:05;4.57;;;4.27;;
3299;SDS011;1662;49.310;8.134;2023-05-10T15:15:31;3.40;;;3.30;;
3299;SDS011;1662;49.310;8.134;2023-05-10T15:17:56;4.10;;;4.03;;
3299;SDS011;1662;49.310;8.134;2023-05-10T15:20:22;4.77;;;4.67;;
3299;SDS011;1662;49.310;8.134;2023-05-10T15:22:47;4.83;;;4.60;;
3299;SDS011;1662;49.310;8.134;2023-05-10T15:25:15;5.00;;;4.80;;
3299;SDS011;1662;49.310;8.134;2023-05-10T15:27:41;5.10;;;5.00;;
3299;SDS011;1662;49.310;8.134;2023-05-10T15:30:08;4.97;;;4.87;;
3299;SDS011;1662;49.310;8.134;2023-05-10T15:32:34;5.00;;;4.90;;
3299;SDS011;1662;49.310;8.134;2023-05-10T15:35:00;5.50;;;5.20;;
3299;SDS011;1662;49.310;8.134;2023-05-10T15:37:26;5.43;;;5.33;;
3299;SDS011;1662;49.310;8.134;2023-05-10T15:39:52;4.93;;;4.83;;
3299;SDS011;1662;49.310;8.134;2023-05-10T15:42:18;5.20;;;5.10;;
3299;SDS011;1662;49.310;8.134;2023-05-10T15:44:43;4.80;;;4.70;;
3299;SDS011;1662;49.310;8.134;2023-05-10T15:47:09;5.00;;;4.90;;
3299;SDS011;1662;49.310;8.134;2023-05-10T15:49:35;4.60;;;4.50;;
3299;SDS011;1662;49.310;8.134;2023-05-10T15:52:01;4.90;;;4.70;;
3299;SDS011;1662;49.310;8.134;2023-05-10T15:54:27;5.50;;;5.17;;
3299;SDS011;1662;49.310;8.134;2023-05-10T15:56:52;4.90;;;4.80;;
3299;SDS011;1662;49.310;8.134;2023-05-10T15:59:19;4.50;;;4.40;;
3299;SDS011;1662;49.310;8.134;2023-05-10T16:01:44;4.60;;;4.50;;
3299;SDS011;1662;49.310;8.134;2023-05-10T16:04:10;4.60;;;4.40;;
3299;SDS011;1662;49.310;8.134;2023-05-10T16:06:35;4.47;;;4.37;;
3299;SDS011;1662;49.310;8.134;2023-05-10T16:09:01;4.37;;;4.37;;